Time;durP1;ratioP1;P1;durP2;ratioP2;P2;SDS_P1;SDS_P2;PMS_P1;PMS_P2;Temp;Humidity;BMP_temperature;BMP_pressure;BME280_temperature;BME280_humidity;BME280_pressure;Samples;Min_cycle;Max_cycle;Signal;HPM_P1;HPM_P2
2023/03/06 00:00:52;;;;;;;8.90;8.00;;;2.20;99.90;;;;;;5096378;28;20771;-69
2023/03/06 00:03:21;;;;;;;9.10;7.83;;;2.20;99.90;;;;;;5088010;28;20565;-69
2023/03/06 00:05:49;;;;;;;10.20;9.10;;;2.20;99.90;;;;;;5094967;28;20476;-69
2023/03/06 00:08:17;;;;;;;9.37;8.37;;;2.20;99.90;;;;;;5086981;28;20484;-67
2023/03/06 00:10:45;;;;;;;9.50;8.50;;;2.10;99.90;;;;;;5097134;28;20800;-69
2023/03/06 00:13:17;;;;;;;9.23;8.23;;;2.10;99.90;;;;;;5094859;28;20472;-69
2023/03/06 00:15:48;;;;;;;9.20;8.27;;;2.10;99.90;;;;;;5093500;28;20468;-68
2023/03/06 00:18:16;;;;;;;9.60;8.67;;;2.10;99.90;;;;;;5088594;28;21076;-68
2023/03/06 00:20:44;;;;;;;12.00;8.90;;;2.10;99.90;;;;;;5092658;28;20519;-68
2023/03/06 00:23:12;;;;;;;10.70;8.40;;;2.10;99.90;;;;;;5086512;28;21323;-68
2023/03/06 00:25:43;;;;;;;10.00;8.53;;;2.10;99.90;;;;;;5088782;28;21188;-68
2023/03/06 00:28:13;;;;;;;9.00;7.63;;;2.10;99.90;;;;;;5088523;28;20479;-70
2023/03/06 00:30:42;;;;;;;8.27;7.40;;;2.10;99.90;;;;;;5086373;28;20503;-68
2023/03/06 00:33:11;;;;;;;9.30;8.40;;;2.10;99.90;;;;;;5090505;28;20570;-69
2023/03/06 00:35:39;;;;;;;9.37;8.10;;;2.10;99.90;;;;;;5086685;28;20523;-69
2023/03/06 00:38:08;;;;;;;8.77;7.80;;;2.10;99.90;;;;;;5085559;28;20496;-68
2023/03/06 00:40:36;;;;;;;8.60;7.73;;;2.10;99.90;;;;;;5088901;28;20495;-68
2023/03/06 00:43:03;;;;;;;7.67;6.40;;;2.10;99.90;;;;;;5080622;28;20468;-69
2023/03/06 00:45:31;;;;;;;7.90;7.10;;;2.00;99.90;;;;;;5093817;28;20463;-69
2023/03/06 00:47:59;;;;;;;8.13;7.07;;;2.10;99.90;;;;;;5097160;28;20583;-70
2023/03/06 00:50:29;;;;;;;7.20;6.50;;;2.10;99.90;;;;;;5094054;28;20700;-68
2023/03/06 00:52:57;;;;;;;6.87;6.17;;;2.10;99.90;;;;;;5092853;28;20483;-69
2023/03/06 00:55:24;;;;;;;6.83;6.13;;;2.10;99.90;;;;;;5098983;28;20491;-70
2023/03/06 00:57:52;;;;;;;7.73;6.50;;;2.00;99.90;;;;;;5097725;28;20468;-69
2023/03/06 01:00:21;;;;;;;7.33;5.83;;;2.10;99.90;;;;;;5090282;28;20994;-68
2023/03/06 01:02:48;;;;;;;8.17;5.93;;;2.10;99.90;;;;;;5097546;28;20463;-69
2023/03/06 01:05:17;;;;;;;6.70;6.00;;;2.00;99.90;;;;;;5104109;28;20467;-69
2023/03/06 01:07:46;;;;;;;6.10;5.50;;;2.00;99.90;;;;;;5097045;27;20478;-68
2023/03/06 01:10:14;;;;;;;8.60;6.80;;;2.10;99.90;;;;;;5096358;28;20487;-69
2023/03/06 01:12:42;;;;;;;9.03;6.60;;;2.10;99.90;;;;;;5101405;28;20997;-68
2023/03/06 01:15:12;;;;;;;8.93;7.40;;;2.10;99.90;;;;;;5100572;28;20495;-69
2023/03/06 01:17:40;;;;;;;8.03;6.70;;;2.10;99.90;;;;;;5104252;28;20500;-69
2023/03/06 01:20:12;;;;;;;8.90;7.60;;;2.10;99.90;;;;;;5082012;28;20470;-68
2023/03/06 01:22:40;;;;;;;9.93;8.60;;;2.10;99.90;;;;;;5095431;28;20490;-69
2023/03/06 01:25:11;;;;;;;11.10;8.57;;;2.10;99.90;;;;;;5091448;28;20460;-69
2023/03/06 01:27:39;;;;;;;9.03;8.13;;;2.00;99.90;;;;;;5087899;28;20478;-68
2023/03/06 01:30:08;;;;;;;12.37;9.23;;;2.00;99.90;;;;;;5096841;28;20571;-69
2023/03/06 01:32:36;;;;;;;10.43;8.80;;;2.00;99.90;;;;;;5094821;28;20496;-69
2023/03/06 01:35:05;;;;;;;11.20;9.20;;;2.00;99.90;;;;;;5090383;28;20499;-69
2023/03/06 01:37:34;;;;;;;11.30;8.70;;;2.00;99.90;;;;;;5099839;27;20475;-68
2023/03/06 01:40:03;;;;;;;9.20;7.47;;;2.00;99.90;;;;;;5099376;28;20479;-68
2023/03/06 01:42:32;;;;;;;9.87;8.33;;;2.00;99.90;;;;;;5099663;28;20571;-69
2023/03/06 01:45:02;;;;;;;9.87;7.60;;;2.00;99.90;;;;;;5099282;28;20488;-69
2023/03/06 01:47:30;;;;;;;9.07;7.30;;;2.00;99.90;;;;;;5096185;28;20478;-68
2023/03/06 01:50:02;;;;;;;10.10;7.70;;;2.00;99.90;;;;;;5099902;27;20858;-69
2023/03/06 01:52:34;;;;;;;9.60;7.40;;;2.00;99.90;;;;;;5098155;28;20591;-69
2023/03/06 01:55:05;;;;;;;9.13;7.10;;;2.00;99.90;;;;;;5094561;28;20594;-69
2023/03/06 01:57:38;;;;;;;9.60;7.33;;;2.00;99.90;;;;;;5099367;28;20463;-69
2023/03/06 02:00:09;;;;;;;9.07;7.40;;;2.00;99.90;;;;;;5092380;27;20960;-69
2023/03/06 02:02:39;;;;;;;9.70;7.53;;;1.90;99.90;;;;;;5093198;28;20471;-69
2023/03/06 02:05:08;;;;;;;9.90;7.37;;;1.90;99.90;;;;;;5100003;28;21054;-69
2023/03/06 02:07:37;;;;;;;10.73;7.43;;;1.90;99.90;;;;;;5092485;28;20467;-69
2023/03/06 02:10:06;;;;;;;8.97;7.03;;;2.00;99.90;;;;;;5098537;28;20831;-68
2023/03/06 02:12:36;;;;;;;11.70;8.87;;;2.00;99.90;;;;;;5096576;28;20510;-68
2023/03/06 02:15:05;;;;;;;11.87;7.47;;;2.00;99.90;;;;;;5094344;28;20868;-69
2023/03/06 02:17:35;;;;;;;10.60;7.33;;;2.00;99.90;;;;;;5099933;28;20903;-69
2023/03/06 02:20:08;;;;;;;10.40;7.73;;;2.00;99.90;;;;;;5096795;28;20464;-69
2023/03/06 02:22:43;;;;;;;10.67;7.47;;;2.00;99.90;;;;;;5092633;28;20495;-68
2023/03/06 02:25:24;;;;;;;10.67;8.20;;;2.00;99.90;;;;;;5081782;28;20482;-68
2023/03/06 02:27:52;;;;;;;11.00;7.90;;;2.00;99.90;;;;;;5090102;28;20577;-69
2023/03/06 02:30:20;;;;;;;10.93;8.40;;;2.00;99.90;;;;;;5078699;27;20483;-69
2023/03/06 02:32:47;;;;;;;10.17;7.83;;;1.90;99.90;;;;;;5084998;27;20636;-69
2023/03/06 02:35:19;;;;;;;12.07;8.27;;;2.00;99.90;;;;;;5085117;28;20504;-69
2023/03/06 02:37:47;;;;;;;14.20;9.97;;;2.00;99.90;;;;;;5079993;27;21134;-70
2023/03/06 02:40:17;;;;;;;12.37;8.60;;;2.00;99.90;;;;;;5085653;28;20961;-68
2023/03/06 02:42:48;;;;;;;13.27;9.23;;;2.00;99.90;;;;;;5084245;28;20464;-70
2023/03/06 02:45:21;;;;;;;12.80;9.63;;;2.00;99.90;;;;;;5091194;28;20463;-69
2023/03/06 02:47:49;;;;;;;15.17;10.40;;;2.00;99.90;;;;;;5090896;28;20468;-69
2023/03/06 02:50:17;;;;;;;15.03;10.90;;;2.00;99.90;;;;;;5092655;28;20468;-69
2023/03/06 02:52:45;;;;;;;15.80;10.70;;;2.00;99.90;;;;;;5093418;27;20811;-69
2023/03/06 02:55:13;;;;;;;14.10;10.70;;;2.00;99.90;;;;;;5099576;28;20496;-68
2023/03/06 02:57:41;;;;;;;12.40;10.00;;;2.00;99.90;;;;;;5098951;28;20464;-69
2023/03/06 03:00:13;;;;;;;15.90;10.27;;;2.00;99.90;;;;;;5093835;27;20475;-69
2023/03/06 03:02:41;;;;;;;14.17;10.17;;;1.90;99.90;;;;;;5098232;28;20498;-69
2023/03/06 03:05:09;;;;;;;15.60;10.73;;;1.90;99.90;;;;;;5100288;28;20487;-68
2023/03/06 03:07:37;;;;;;;15.40;10.60;;;1.90;99.90;;;;;;5096895;28;20471;-68
2023/03/06 03:10:06;;;;;;;14.20;9.90;;;2.00;99.90;;;;;;5096794;28;20847;-68
2023/03/06 03:12:34;;;;;;;14.63;10.67;;;1.90;99.90;;;;;;5094839;28;20489;-69
2023/03/06 03:15:02;;;;;;;15.53;10.20;;;1.90;99.90;;;;;;5098376;28;20998;-68
2023/03/06 03:17:31;;;;;;;14.27;10.40;;;1.90;99.90;;;;;;5098652;28;20468;-68
2023/03/06 03:19:59;;;;;;;13.80;9.53;;;1.90;99.90;;;;;;5099090;28;20464;-68
2023/03/06 03:22:27;;;;;;;14.60;9.60;;;1.90;99.90;;;;;;5093580;27;20491;-69
2023/03/06 03:24:55;;;;;;;12.83;9.30;;;1.90;99.90;;;;;;5093778;28;20476;-69
2023/03/06 03:27:23;;;;;;;14.43;10.17;;;1.90;99.90;;;;;;5086725;28;20467;-68
2023/03/06 03:29:51;;;;;;;15.57;10.50;;;1.90;99.90;;;;;;5094499;28;20488;-68
2023/03/06 03:32:19;;;;;;;14.37;9.87;;;1.90;99.90;;;;;;5100353;28;20724;-68
2023/03/06 03:34:49;;;;;;;13.53;9.27;;;1.90;99.90;;;;;;5096038;28;21016;-70
2023/03/06 03:37:17;;;;;;;14.60;8.80;;;1.90;99.90;;;;;;5097753;27;20487;-68
2023/03/06 03:39:45;;;;;;;13.57;9.70;;;1.90;99.90;;;;;;5091953;28;20488;-69
2023/03/06 03:42:12;;;;;;;15.23;10.60;;;1.90;99.90;;;;;;5092769;28;20483;-68
2023/03/06 03:44:40;;;;;;;14.50;9.70;;;1.90;99.90;;;;;;5098016;28;20479;-68
2023/03/06 03:47:08;;;;;;;13.47;8.80;;;1.90;99.90;;;;;;5088353;28;20472;-68
2023/03/06 03:49:36;;;;;;;12.90;9.13;;;1.80;99.90;;;;;;5091434;28;20484;-68
2023/03/06 03:52:06;;;;;;;16.77;10.40;;;1.80;99.90;;;;;;5088325;28;20492;-69
2023/03/06 03:54:34;;;;;;;13.57;9.57;;;1.80;99.90;;;;;;5085677;27;20471;-68
2023/03/06 03:57:02;;;;;;;14.93;9.57;;;1.80;99.90;;;;;;5089393;28;20495;-68
2023/03/06 03:59:30;;;;;;;11.87;8.43;;;1.80;99.90;;;;;;5090323;28;20484;-68
2023/03/06 04:01:58;;;;;;;12.13;8.63;;;1.80;99.90;;;;;;5094609;28;20495;-68
2023/03/06 04:04:26;;;;;;;12.33;8.40;;;1.80;99.90;;;;;;5094031;28;20559;-68
2023/03/06 04:06:54;;;;;;;13.03;8.50;;;1.80;99.90;;;;;;5095681;28;20460;-68
2023/03/06 04:09:23;;;;;;;12.67;9.00;;;1.70;99.90;;;;;;5094016;28;20494;-68
2023/03/06 04:11:51;;;;;;;11.87;8.30;;;1.70;99.90;;;;;;5093611;28;20506;-68
2023/03/06 04:14:19;;;;;;;11.73;8.40;;;1.70;99.90;;;;;;5093729;27;20483;-68
2023/03/06 04:16:47;;;;;;;11.10;7.30;;;1.70;99.90;;;;;;5090159;28;20495;-69
2023/03/06 04:19:15;;;;;;;13.03;8.23;;;1.70;99.90;;;;;;5091317;28;20491;-68
2023/03/06 04:21:43;;;;;;;9.13;7.17;;;1.70;99.90;;;;;;5096603;28;20484;-69
2023/03/06 04:24:11;;;;;;;10.40;7.77;;;1.60;99.90;;;;;;5088581;28;20983;-68
2023/03/06 04:26:40;;;;;;;9.17;6.70;;;1.60;99.90;;;;;;5094148;28;20468;-68
2023/03/06 04:29:08;;;;;;;8.87;6.40;;;1.60;99.90;;;;;;5087192;28;20619;-68
2023/03/06 04:31:36;;;;;;;10.90;5.90;;;1.60;99.90;;;;;;5088755;28;20481;-68
2023/03/06 04:34:04;;;;;;;8.50;5.70;;;1.60;99.90;;;;;;5087955;27;20452;-69
2023/03/06 04:36:34;;;;;;;9.07;5.93;;;1.60;99.90;;;;;;5084532;28;20510;-68
2023/03/06 04:39:02;;;;;;;6.70;5.30;;;1.60;99.90;;;;;;5087211;28;20488;-68
2023/03/06 04:41:30;;;;;;;8.20;5.47;;;1.50;99.90;;;;;;5090315;28;20544;-68
2023/03/06 04:44:00;;;;;;;8.50;4.80;;;1.50;99.90;;;;;;5088261;28;20555;-69
2023/03/06 04:46:28;;;;;;;6.03;4.70;;;1.50;99.90;;;;;;5080776;28;20464;-68
2023/03/06 04:48:56;;;;;;;7.80;5.10;;;1.50;99.90;;;;;;5081774;28;20487;-68
2023/03/06 04:51:24;;;;;;;6.03;4.50;;;1.50;99.90;;;;;;5088185;28;20529;-68
2023/03/06 04:53:52;;;;;;;4.40;3.73;;;1.50;99.90;;;;;;5096348;28;20557;-68
2023/03/06 04:56:20;;;;;;;6.00;4.00;;;1.50;99.90;;;;;;5095859;28;20491;-69
2023/03/06 04:58:48;;;;;;;6.50;3.90;;;1.50;99.90;;;;;;5095490;28;20483;-68
2023/03/06 05:01:17;;;;;;;7.27;4.40;;;1.40;99.90;;;;;;5096618;28;20972;-68
2023/03/06 05:03:45;;;;;;;5.83;3.73;;;1.40;99.90;;;;;;5093094;28;20467;-69
2023/03/06 05:06:13;;;;;;;6.53;4.10;;;1.40;99.90;;;;;;5094953;28;20480;-69
2023/03/06 05:08:41;;;;;;;5.43;3.77;;;1.40;99.90;;;;;;5092314;28;20491;-69
2023/03/06 05:11:09;;;;;;;3.70;3.37;;;1.30;99.90;;;;;;5092908;28;21091;-68
2023/03/06 05:13:37;;;;;;;5.77;3.80;;;1.30;99.90;;;;;;5098911;28;20469;-69
2023/03/06 05:16:07;;;;;;;5.40;4.50;;;1.30;99.90;;;;;;5096200;28;20468;-68
2023/03/06 05:18:36;;;;;;;4.10;3.47;;;1.20;99.90;;;;;;5096524;28;20517;-68
2023/03/06 05:21:06;;;;;;;6.20;4.00;;;1.20;99.90;;;;;;5096040;28;20506;-68
2023/03/06 05:23:37;;;;;;;6.20;4.00;;;1.20;99.90;;;;;;5098488;28;20464;-68
2023/03/06 05:26:07;;;;;;;5.33;3.30;;;1.20;99.90;;;;;;5090522;28;20558;-69
2023/03/06 05:28:35;;;;;;;5.97;3.27;;;1.20;99.90;;;;;;5086441;28;20487;-68
2023/03/06 05:31:04;;;;;;;5.70;3.13;;;1.20;99.90;;;;;;5090042;28;20900;-68
2023/03/06 05:33:32;;;;;;;7.80;3.50;;;1.20;99.90;;;;;;5093540;28;20890;-67
2023/03/06 05:36:01;;;;;;;4.10;2.77;;;1.20;99.90;;;;;;5094958;28;20975;-68
2023/03/06 05:38:30;;;;;;;7.13;3.43;;;1.20;99.90;;;;;;5091452;28;20491;-69
2023/03/06 05:40:57;;;;;;;4.07;3.60;;;1.10;99.90;;;;;;5092710;28;21038;-68
2023/03/06 05:43:27;;;;;;;5.43;3.60;;;1.20;99.90;;;;;;5090494;28;20471;-67
2023/03/06 05:46:01;;;;;;;6.53;3.77;;;1.10;99.90;;;;;;5084511;28;20471;-69
2023/03/06 05:48:29;;;;;;;7.43;4.13;;;1.10;99.90;;;;;;5083783;28;20494;-69
2023/03/06 05:50:58;;;;;;;6.70;4.60;;;1.10;99.90;;;;;;5089632;28;20491;-68
2023/03/06 05:53:28;;;;;;;8.53;5.53;;;1.10;99.90;;;;;;5090687;28;20474;-68
2023/03/06 05:55:57;;;;;;;7.97;6.00;;;1.00;99.90;;;;;;5081288;28;20464;-69
2023/03/06 05:58:25;;;;;;;7.93;5.97;;;1.00;99.90;;;;;;5095291;28;20491;-69
2023/03/06 06:00:54;;;;;;;8.50;6.77;;;1.00;99.90;;;;;;5094461;28;20504;-69
2023/03/06 06:03:22;;;;;;;9.77;7.13;;;1.00;99.90;;;;;;5087841;28;20459;-68
2023/03/06 06:05:51;;;;;;;9.47;7.07;;;1.00;99.90;;;;;;5095016;27;20474;-69
2023/03/06 06:08:19;;;;;;;9.87;6.97;;;1.00;99.90;;;;;;5084296;28;20491;-68
2023/03/06 06:10:48;;;;;;;10.70;8.17;;;1.00;99.90;;;;;;5085126;28;21022;-68
2023/03/06 06:13:20;;;;;;;11.27;7.37;;;1.00;99.90;;;;;;5079584;27;20463;-69
2023/03/06 06:15:48;;;;;;;10.13;7.23;;;1.00;99.90;;;;;;5090402;28;20461;-69
2023/03/06 06:18:16;;;;;;;10.83;8.33;;;1.00;99.90;;;;;;5082110;27;20495;-71
2023/03/06 06:20:44;;;;;;;11.37;7.93;;;1.00;99.90;;;;;;5086044;27;20494;-70
2023/03/06 06:23:12;;;;;;;11.80;8.73;;;1.00;99.90;;;;;;5096003;27;20487;-70
2023/03/06 06:25:39;;;;;;;11.20;7.97;;;1.00;99.90;;;;;;5097867;28;20471;-69
2023/03/06 06:28:11;;;;;;;12.10;8.37;;;1.00;99.90;;;;;;5093629;28;20484;-70
2023/03/06 06:30:39;;;;;;;10.20;7.50;;;1.10;99.90;;;;;;5097450;28;20483;-69
2023/03/06 06:33:07;;;;;;;12.60;8.20;;;1.10;99.90;;;;;;5096935;28;20502;-70
2023/03/06 06:35:36;;;;;;;10.70;7.37;;;1.10;99.90;;;;;;5098886;28;20468;-70
2023/03/06 06:38:04;;;;;;;10.17;7.37;;;1.10;99.90;;;;;;5093067;28;20917;-70
2023/03/06 06:40:32;;;;;;;14.17;8.30;;;1.10;99.90;;;;;;5098242;28;20485;-69
2023/03/06 06:43:00;;;;;;;11.50;7.90;;;1.10;99.90;;;;;;5103688;28;20464;-69
2023/03/06 06:45:30;;;;;;;10.70;7.93;;;1.10;99.90;;;;;;5096551;28;20546;-69
2023/03/06 06:47:58;;;;;;;10.30;8.03;;;1.20;99.90;;;;;;5098477;28;20842;-70
2023/03/06 06:50:26;;;;;;;12.30;8.47;;;1.20;99.90;;;;;;5092520;28;20469;-69
2023/03/06 06:52:54;;;;;;;11.60;8.27;;;1.20;99.90;;;;;;5084490;28;20879;-69
2023/03/06 06:55:21;;;;;;;12.87;9.10;;;1.20;99.90;;;;;;5095801;28;20469;-70
2023/03/06 06:57:49;;;;;;;11.77;7.97;;;1.30;99.90;;;;;;5102765;28;20491;-69
2023/03/06 07:00:19;;;;;;;12.53;8.83;;;1.30;99.90;;;;;;5098392;28;20854;-70
2023/03/06 07:02:50;;;;;;;13.37;8.17;;;1.30;99.90;;;;;;5101725;27;20503;-69
2023/03/06 07:05:18;;;;;;;11.47;8.47;;;1.40;99.90;;;;;;5104811;28;20473;-69
2023/03/06 07:07:50;;;;;;;10.70;7.90;;;1.40;99.90;;;;;;5103811;28;20532;-70
2023/03/06 07:10:18;;;;;;;10.60;8.07;;;1.40;99.90;;;;;;5103454;28;20474;-70
2023/03/06 07:12:47;;;;;;;8.30;6.80;;;1.40;99.90;;;;;;5105921;28;20461;-70
2023/03/06 07:15:16;;;;;;;12.70;8.30;;;1.50;99.90;;;;;;5104533;28;20468;-69
2023/03/06 07:17:44;;;;;;;10.50;7.13;;;1.50;99.90;;;;;;5104174;28;20963;-69
2023/03/06 07:20:15;;;;;;;10.07;7.17;;;1.50;99.90;;;;;;5103928;28;20483;-69
2023/03/06 07:22:43;;;;;;;9.40;6.80;;;1.60;99.90;;;;;;5105372;28;20460;-69
2023/03/06 07:25:19;;;;;;;9.63;7.60;;;1.60;99.90;;;;;;5104750;28;20586;-69
2023/03/06 07:27:47;;;;;;;8.43;6.50;;;1.70;99.90;;;;;;5096683;28;20460;-70
2023/03/06 07:30:21;;;;;;;10.80;6.87;;;1.70;99.90;;;;;;5105308;28;20975;-69
2023/03/06 07:32:51;;;;;;;10.23;7.03;;;1.70;99.90;;;;;;5101945;28;20551;-70
2023/03/06 07:35:21;;;;;;;9.40;6.80;;;1.70;99.90;;;;;;5104872;28;20468;-69
2023/03/06 07:37:50;;;;;;;8.97;6.90;;;1.60;99.90;;;;;;5103991;28;20476;-70
2023/03/06 07:40:18;;;;;;;9.10;6.53;;;1.70;99.90;;;;;;5099521;28;20472;-69
2023/03/06 07:42:46;;;;;;;8.87;5.70;;;1.70;99.90;;;;;;5105051;28;20472;-69
2023/03/06 07:45:15;;;;;;;7.70;6.20;;;1.80;99.90;;;;;;5102617;28;20471;-69
2023/03/06 07:47:42;;;;;;;9.50;7.07;;;1.80;99.90;;;;;;5103803;28;20478;-70
2023/03/06 07:50:11;;;;;;;9.07;6.97;;;1.80;99.90;;;;;;5104073;28;20467;-70
2023/03/06 07:52:41;;;;;;;8.67;6.00;;;1.80;99.90;;;;;;5102294;28;20994;-69
2023/03/06 07:55:10;;;;;;;8.70;6.27;;;1.80;99.90;;;;;;5102001;28;20465;-69
2023/03/06 07:57:38;;;;;;;7.60;6.27;;;1.90;99.90;;;;;;5103776;28;20467;-69
2023/03/06 08:00:10;;;;;;;8.53;6.03;;;1.90;99.90;;;;;;5103523;28;20498;-70
2023/03/06 08:02:38;;;;;;;9.67;6.47;;;1.90;99.90;;;;;;5104202;28;20489;-69
2023/03/06 08:05:07;;;;;;;7.50;5.53;;;2.00;99.90;;;;;;5103448;28;20478;-70
2023/03/06 08:07:35;;;;;;;8.40;5.70;;;2.00;99.90;;;;;;5102316;28;20518;-69
2023/03/06 08:10:06;;;;;;;9.07;5.80;;;2.00;99.90;;;;;;5104954;28;20471;-70
2023/03/06 08:12:34;;;;;;;9.57;5.83;;;2.00;99.90;;;;;;5105064;28;20498;-69
2023/03/06 08:15:02;;;;;;;7.47;5.97;;;2.10;99.90;;;;;;5105983;28;20479;-70
2023/03/06 08:17:30;;;;;;;9.70;6.50;;;2.10;99.90;;;;;;5103190;28;20473;-69
2023/03/06 08:19:58;;;;;;;7.37;5.20;;;2.10;99.90;;;;;;5105321;28;20488;-70
2023/03/06 08:22:26;;;;;;;7.00;5.27;;;2.10;99.90;;;;;;5105189;28;20491;-69
2023/03/06 08:24:55;;;;;;;7.13;5.37;;;2.20;99.90;;;;;;5105040;28;20468;-69
2023/03/06 08:27:24;;;;;;;5.93;5.30;;;2.20;99.90;;;;;;5103490;28;20474;-70
2023/03/06 08:29:52;;;;;;;7.30;5.40;;;2.20;99.90;;;;;;5102482;28;20957;-70
2023/03/06 08:32:20;;;;;;;7.97;5.67;;;2.20;99.90;;;;;;5102904;28;20487;-69
2023/03/06 08:34:48;;;;;;;8.63;6.00;;;2.20;99.90;;;;;;5103089;28;20467;-69
2023/03/06 08:37:16;;;;;;;7.23;5.23;;;2.20;99.90;;;;;;5104714;28;20468;-70
2023/03/06 08:39:44;;;;;;;9.20;6.40;;;2.20;99.90;;;;;;5102594;28;20617;-69
2023/03/06 08:42:12;;;;;;;9.80;6.17;;;2.20;99.90;;;;;;5102203;28;20479;-69
2023/03/06 08:44:42;;;;;;;10.77;6.27;;;2.20;99.90;;;;;;5100902;28;20563;-69
2023/03/06 08:47:09;;;;;;;7.57;6.10;;;2.20;99.90;;;;;;5102201;28;20472;-69
2023/03/06 08:49:39;;;;;;;9.10;6.40;;;2.20;99.90;;;;;;5101175;28;21028;-69
2023/03/06 08:52:07;;;;;;;9.03;5.97;;;2.20;99.90;;;;;;5095094;28;20510;-69
2023/03/06 08:54:36;;;;;;;8.00;6.23;;;2.20;99.90;;;;;;5099637;28;20464;-69
2023/03/06 08:57:04;;;;;;;8.93;5.63;;;2.30;99.90;;;;;;5102162;28;20484;-69
2023/03/06 08:59:32;;;;;;;7.13;4.73;;;2.30;99.90;;;;;;5100758;28;20482;-70
2023/03/06 09:02:02;;;;;;;7.43;5.40;;;2.40;99.90;;;;;;5100514;28;20495;-69
2023/03/06 09:04:31;;;;;;;8.83;5.70;;;2.40;99.90;;;;;;5100544;28;20968;-69
2023/03/06 09:07:00;;;;;;;6.07;5.00;;;2.40;99.90;;;;;;5098227;28;20467;-69
2023/03/06 09:09:28;;;;;;;6.70;4.87;;;2.40;99.90;;;;;;5099960;28;20469;-69
2023/03/06 09:11:56;;;;;;;7.97;5.47;;;2.40;99.90;;;;;;5101252;28;20492;-69
2023/03/06 09:14:24;;;;;;;7.10;5.17;;;2.50;99.90;;;;;;5101604;28;20472;-69
2023/03/06 09:16:52;;;;;;;6.90;5.10;;;2.50;99.90;;;;;;5101307;28;20475;-69
2023/03/06 09:19:21;;;;;;;7.07;5.20;;;2.60;99.90;;;;;;5099994;28;20475;-69
2023/03/06 09:21:49;;;;;;;5.27;4.77;;;2.60;99.90;;;;;;5098506;28;20931;-69
2023/03/06 09:24:17;;;;;;;5.57;4.60;;;2.70;99.90;;;;;;5102832;28;20469;-70
2023/03/06 09:26:45;;;;;;;6.20;5.07;;;2.70;99.90;;;;;;5105840;28;20470;-70
2023/03/06 09:29:16;;;;;;;8.60;5.40;;;2.70;99.90;;;;;;5105460;28;20479;-70
2023/03/06 09:31:44;;;;;;;6.40;5.20;;;2.80;99.90;;;;;;5103916;28;20567;-69
2023/03/06 09:34:12;;;;;;;8.80;5.10;;;2.80;99.90;;;;;;5105547;28;20543;-69
2023/03/06 09:36:41;;;;;;;7.73;5.30;;;2.90;99.90;;;;;;5105367;28;20467;-70
2023/03/06 09:39:24;;;;;;;6.87;4.90;;;2.90;99.90;;;;;;5104164;28;20480;-71
2023/03/06 09:41:53;;;;;;;7.03;5.63;;;3.00;99.90;;;;;;5104063;28;20491;-70
2023/03/06 09:44:24;;;;;;;7.87;5.70;;;3.10;99.90;;;;;;5105758;28;20499;-70
2023/03/06 09:47:08;;;;;;;6.10;5.40;;;3.10;99.90;;;;;;5104779;28;20562;-69
2023/03/06 09:49:44;;;;;;;6.20;4.90;;;3.20;99.90;;;;;;5097715;28;20594;-70
2023/03/06 09:52:29;;;;;;;5.73;5.13;;;3.20;99.90;;;;;;5096477;28;20491;-70
2023/03/06 09:55:00;;;;;;;8.63;5.33;;;3.30;99.90;;;;;;5104416;28;20468;-69
2023/03/06 09:57:31;;;;;;;9.00;5.80;;;3.40;99.90;;;;;;5100817;28;20465;-69
2023/03/06 10:00:02;;;;;;;8.80;6.17;;;3.50;99.90;;;;;;5104015;28;20495;-70
2023/03/06 10:02:38;;;;;;;6.77;5.37;;;3.60;99.90;;;;;;5104768;28;20576;-70
2023/03/06 10:05:12;;;;;;;6.93;5.87;;;3.70;99.90;;;;;;5106007;28;20547;-70
2023/03/06 10:07:49;;;;;;;7.00;5.60;;;3.70;99.90;;;;;;5100208;28;20480;-70
2023/03/06 10:10:20;;;;;;;7.27;5.20;;;3.60;99.90;;;;;;5104955;28;20475;-69
2023/03/06 10:12:55;;;;;;;6.70;5.00;;;3.60;99.90;;;;;;5104573;28;20478;-69
2023/03/06 10:15:27;;;;;;;5.40;4.90;;;3.60;99.90;;;;;;5102957;28;20472;-69
2023/03/06 10:17:56;;;;;;;8.97;5.23;;;3.60;99.90;;;;;;5105128;28;20524;-69
2023/03/06 10:20:26;;;;;;;6.23;5.27;;;3.70;99.90;;;;;;5102626;28;20481;-69
2023/03/06 10:23:20;;;;;;;5.93;4.73;;;3.80;99.90;;;;;;5102129;28;20851;-69
2023/03/06 10:25:56;;;;;;;7.20;4.90;;;3.80;99.90;;;;;;5102292;28;20543;-69
2023/03/06 10:28:29;;;;;;;5.40;4.90;;;3.90;99.90;;;;;;5102886;28;20479;-69
2023/03/06 10:31:02;;;;;;;5.87;4.37;;;3.90;99.90;;;;;;5102368;28;20566;-69
2023/03/06 10:33:46;;;;;;;5.33;4.53;;;3.90;99.90;;;;;;5104952;28;20474;-70
2023/03/06 10:36:16;;;;;;;5.77;5.20;;;4.00;99.90;;;;;;5103642;28;20974;-70
2023/03/06 10:38:47;;;;;;;7.70;5.63;;;4.20;99.90;;;;;;5102554;28;20472;-69
2023/03/06 10:41:27;;;;;;;8.60;6.10;;;4.30;99.90;;;;;;5101601;28;20498;-70
2023/03/06 10:44:18;;;;;;;8.10;6.40;;;4.40;99.90;;;;;;5102972;28;20461;-69
2023/03/06 10:46:49;;;;;;;7.37;6.67;;;4.50;99.90;;;;;;5103246;28;20781;-70
2023/03/06 10:49:30;;;;;;;6.20;5.30;;;4.60;99.90;;;;;;5101918;28;21029;-69
2023/03/06 10:52:00;;;;;;;7.93;7.07;;;4.70;99.90;;;;;;5103859;28;20503;-70
2023/03/06 10:54:31;;;;;;;7.57;6.83;;;4.80;99.90;;;;;;5102414;28;20971;-69
2023/03/06 10:57:18;;;;;;;7.03;6.33;;;4.90;99.90;;;;;;5101110;28;20467;-69
2023/03/06 10:59:54;;;;;;;8.00;6.20;;;5.00;99.90;;;;;;5099382;28;20472;-70
2023/03/06 11:02:28;;;;;;;7.07;5.70;;;5.00;99.90;;;;;;5102217;28;20487;-69
2023/03/06 11:04:59;;;;;;;7.10;6.03;;;4.90;99.90;;;;;;5103521;28;20470;-69
2023/03/06 11:07:28;;;;;;;6.67;5.97;;;4.80;99.90;;;;;;5097670;28;20547;-68
2023/03/06 11:10:05;;;;;;;5.57;5.03;;;4.70;99.90;;;;;;5103480;28;20983;-69
2023/03/06 11:12:34;;;;;;;5.50;4.70;;;4.60;99.90;;;;;;5102857;28;20491;-70
2023/03/06 11:15:23;;;;;;;6.03;4.97;;;4.50;99.90;;;;;;5101279;28;20570;-69
2023/03/06 11:17:59;;;;;;;8.43;4.53;;;4.40;99.90;;;;;;5096704;28;20467;-69
2023/03/06 11:20:31;;;;;;;4.40;4.00;;;4.40;99.90;;;;;;5102981;28;20487;-69
2023/03/06 11:23:19;;;;;;;6.43;4.10;;;4.40;99.90;;;;;;5102966;28;20460;-69
2023/03/06 11:25:55;;;;;;;5.57;4.47;;;4.60;99.90;;;;;;5102978;28;20459;-69
2023/03/06 11:28:28;;;;;;;6.13;5.00;;;4.80;99.90;;;;;;5102081;28;20486;-70
2023/03/06 11:31:01;;;;;;;5.60;4.70;;;4.80;99.90;;;;;;5101497;28;20549;-70
2023/03/06 11:33:35;;;;;;;4.70;3.10;;;4.90;99.90;;;;;;5101163;28;20479;-69
2023/03/06 11:36:13;;;;;;;3.57;3.27;;;5.10;99.90;;;;;;5102188;28;20910;-69
2023/03/06 11:38:48;;;;;;;3.03;2.50;;;5.40;99.90;;;;;;5102079;28;20849;-69
2023/03/06 11:41:31;;;;;;;2.50;2.30;;;5.60;99.90;;;;;;5100249;28;20494;-69
2023/03/06 11:44:05;;;;;;;3.10;2.17;;;5.80;99.90;;;;;;5101305;28;20476;-69
2023/03/06 11:46:38;;;;;;;2.70;1.90;;;6.00;99.90;;;;;;5100805;28;20486;-70
2023/03/06 11:49:19;;;;;;;2.97;2.10;;;6.20;99.90;;;;;;5101563;28;20899;-70
2023/03/06 11:51:51;;;;;;;2.37;1.80;;;6.30;99.90;;;;;;5100438;27;20994;-69
2023/03/06 11:54:19;;;;;;;2.40;2.20;;;6.40;99.90;;;;;;5102082;28;20461;-69
2023/03/06 11:56:54;;;;;;;2.60;1.77;;;6.50;99.90;;;;;;5100723;28;20460;-69
2023/03/06 11:59:49;;;;;;;1.60;1.50;;;6.50;99.90;;;;;;5099811;28;20475;-70
2023/03/06 12:02:29;;;;;;;1.60;1.50;;;6.40;99.90;;;;;;5099579;28;20580;-69
2023/03/06 12:05:10;;;;;;;2.93;1.73;;;6.40;99.90;;;;;;5101593;28;20550;-69
2023/03/06 12:07:47;;;;;;;1.90;1.60;;;6.40;99.90;;;;;;5100660;28;21034;-68
2023/03/06 12:10:19;;;;;;;4.77;1.47;;;6.40;99.90;;;;;;5100359;28;20472;-69
2023/03/06 12:13:15;;;;;;;1.80;1.33;;;6.50;99.90;;;;;;5101520;28;20470;-69
2023/03/06 12:16:06;;;;;;;2.30;1.10;;;6.70;99.90;;;;;;5100747;28;20464;-69
2023/03/06 12:18:40;;;;;;;1.97;1.60;;;6.80;99.90;;;;;;5098123;28;20518;-69
2023/03/06 12:21:15;;;;;;;2.10;1.27;;;7.10;99.90;;;;;;5101981;28;20499;-69
2023/03/06 12:24:03;;;;;;;2.00;1.20;;;7.60;99.90;;;;;;5102123;28;20834;-69
2023/03/06 12:26:57;;;;;;;1.73;0.90;;;7.70;99.90;;;;;;5101568;28;20474;-69
2023/03/06 12:29:52;;;;;;;1.90;1.07;;;7.60;99.90;;;;;;5097462;28;20480;-69
2023/03/06 12:32:35;;;;;;;2.20;1.10;;;7.70;99.90;;;;;;5101181;28;20852;-69
2023/03/06 12:35:21;;;;;;;2.47;0.80;;;7.70;99.90;;;;;;5101207;28;20571;-70
2023/03/06 12:37:58;;;;;;;0.70;0.70;;;7.60;99.90;;;;;;5099523;28;20564;-68
2023/03/06 12:40:46;;;;;;;2.13;1.17;;;7.50;99.90;;;;;;5099763;28;20488;-69
2023/03/06 12:43:37;;;;;;;1.80;1.03;;;7.50;99.90;;;;;;5100447;28;20811;-69
2023/03/06 12:46:13;;;;;;;1.00;0.90;;;8.90;99.90;;;;;;5100408;28;20532;-68
2023/03/06 12:48:46;;;;;;;1.10;0.90;;;11.60;99.90;;;;;;5099195;28;20548;-69
2023/03/06 12:51:20;;;;;;;1.37;0.70;;;12.40;99.90;;;;;;5101259;28;20820;-69
2023/03/06 12:53:50;;;;;;;1.20;0.80;;;12.50;96.50;;;;;;5100667;28;20459;-69
2023/03/06 12:56:20;;;;;;;1.53;0.77;;;13.10;92.90;;;;;;5099005;28;20469;-70
2023/03/06 12:58:51;;;;;;;1.27;0.60;;;14.00;66.60;;;;;;5099263;28;20480;-69
2023/03/06 13:01:46;;;;;;;0.80;0.60;;;15.20;60.90;;;;;;5103100;28;20506;-69
2023/03/06 13:04:30;;;;;;;0.87;0.80;;;17.00;49.70;;;;;;5104394;28;20482;-70
2023/03/06 13:07:21;;;;;;;2.63;0.83;;;18.60;45.00;;;;;;5102162;28;20967;-69
2023/03/06 13:10:05;;;;;;;1.10;0.70;;;19.40;43.00;;;;;;5103342;28;20497;-69
2023/03/06 13:12:49;;;;;;;1.00;0.80;;;19.00;39.80;;;;;;5103592;28;20483;-70